sensor_id;sensor_type;location;lat;lon;timestamp;temperature;humidity
16479;DHT22;8350;52.316;10.530;2023-10-19T00:02:08;8.10;99.90
16479;DHT22;8350;52.316;10.530;2023-10-19T00:04:38;8.10;99.90
16479;DHT22;8350;52.316;10.530;2023-10-19T00:07:07;8.10;99.90
16479;DHT22;8350;52.316;10.530;2023-10-19T00:09:41;8.00;99.90
16479;DHT22;8350;52.316;10.530;2023-10-19T00:12:10;8.00;99.90
16479;DHT22;8350;52.316;10.530;2023-10-19T00:14:38;7.90;99.90
16479;DHT22;8350;52.316;10.530;2023-10-19T00:17:04;7.90;99.90
16479;DHT22;8350;52.316;10.530;2023-10-19T00:19:36;7.90;99.90
16479;DHT22;8350;52.316;10.530;2023-10-19T00:22:06;7.90;99.90
16479;DHT22;8350;52.316;10.530;2023-10-19T00:24:46;7.90;99.90
16479;DHT22;8350;52.316;10.530;2023-10-19T00:27:16;7.90;99.90
16479;DHT22;8350;52.316;10.530;2023-10-19T00:29:43;7.90;99.90
16479;DHT22;8350;52.316;10.530;2023-10-19T00:32:15;7.90;99.90
16479;DHT22;8350;52.316;10.530;2023-10-19T00:34:44;7.80;99.90
16479;DHT22;8350;52.316;10.530;2023-10-19T00:37:18;7.80;99.90
16479;DHT22;8350;52.316;10.530;2023-10-19T00:39:51;7.80;99.90
16479;DHT22;8350;52.316;10.530;2023-10-19T00:42:21;7.80;99.90
16479;DHT22;8350;52.316;10.530;2023-10-19T00:44:55;7.80;99.90
16479;DHT22;8350;52.316;10.530;2023-10-19T00:47:30;7.80;99.90
16479;DHT22;8350;52.316;10.530;2023-10-19T00:50:06;7.80;99.90
16479;DHT22;8350;52.316;10.530;2023-10-19T00:52:42;7.80;99.90
16479;DHT22;8350;52.316;10.530;2023-10-19T00:55:15;7.80;99.90
16479;DHT22;8350;52.316;10.530;2023-10-19T00:57:45;7.80;99.90
16479;DHT22;8350;52.316;10.530;2023-10-19T01:00:15;7.80;99.90
16479;DHT22;8350;52.316;10.530;2023-10-19T01:02:57;7.80;99.90
16479;DHT22;8350;52.316;10.530;2023-10-19T01:05:30;7.80;99.90
16479;DHT22;8350;52.316;10.530;2023-10-19T01:08:03;7.80;99.90
16479;DHT22;8350;52.316;10.530;2023-10-19T01:10:40;7.80;99.90
16479;DHT22;8350;52.316;10.530;2023-10-19T01:13:10;7.80;99.90
16479;DHT22;8350;52.316;10.530;2023-10-19T01:15:38;7.80;99.90
16479;DHT22;8350;52.316;10.530;2023-10-19T01:18:06;7.80;99.90
16479;DHT22;8350;52.316;10.530;2023-10-19T01:20:36;7.80;99.90
16479;DHT22;8350;52.316;10.530;2023-10-19T01:23:20;7.70;99.90
16479;DHT22;8350;52.316;10.530;2023-10-19T01:25:53;7.70;99.90
16479;DHT22;8350;52.316;10.530;2023-10-19T01:28:34;7.70;99.90
16479;DHT22;8350;52.316;10.530;2023-10-19T01:31:14;7.60;99.90
16479;DHT22;8350;52.316;10.530;2023-10-19T01:33:43;7.60;99.90
16479;DHT22;8350;52.316;10.530;2023-10-19T01:36:11;7.60;99.90
16479;DHT22;8350;52.316;10.530;2023-10-19T01:38:39;7.60;99.90
16479;DHT22;8350;52.316;10.530;2023-10-19T01:41:07;7.60;99.90
16479;DHT22;8350;52.316;10.530;2023-10-19T01:43:39;7.60;99.90
16479;DHT22;8350;52.316;10.530;2023-10-19T01:46:09;7.60;99.90
16479;DHT22;8350;52.316;10.530;2023-10-19T01:48:42;7.50;99.90
16479;DHT22;8350;52.316;10.530;2023-10-19T01:51:11;7.60;99.90
16479;DHT22;8350;52.316;10.530;2023-10-19T01:53:41;7.50;99.90
16479;DHT22;8350;52.316;10.530;2023-10-19T01:56:10;7.50;99.90
16479;DHT22;8350;52.316;10.530;2023-10-19T01:58:40;7.50;99.90
16479;DHT22;8350;52.316;10.530;2023-10-19T02:01:08;7.50;99.90
16479;DHT22;8350;52.316;10.530;2023-10-19T02:03:40;7.40;99.90
16479;DHT22;8350;52.316;10.530;2023-10-19T02:06:08;7.40;99.90
16479;DHT22;8350;52.316;10.530;2023-10-19T02:08:45;7.40;99.90
16479;DHT22;8350;52.316;10.530;2023-10-19T02:11:14;7.40;99.90
16479;DHT22;8350;52.316;10.530;2023-10-19T02:13:44;7.40;99.90
16479;DHT22;8350;52.316;10.530;2023-10-19T02:16:12;7.30;99.90
16479;DHT22;8350;52.316;10.530;2023-10-19T02:18:39;7.30;99.90
16479;DHT22;8350;52.316;10.530;2023-10-19T02:21:06;7.30;99.90
16479;DHT22;8350;52.316;10.530;2023-10-19T02:23:32;7.20;99.90
16479;DHT22;8350;52.316;10.530;2023-10-19T02:26:03;7.20;99.90
16479;DHT22;8350;52.316;10.530;2023-10-19T02:28:30;7.20;99.90
16479;DHT22;8350;52.316;10.530;2023-10-19T02:31:02;7.20;99.90
16479;DHT22;8350;52.316;10.530;2023-10-19T02:33:38;7.20;99.90
16479;DHT22;8350;52.316;10.530;2023-10-19T02:36:05;7.10;99.90
16479;DHT22;8350;52.316;10.530;2023-10-19T02:38:39;7.10;99.90
16479;DHT22;8350;52.316;10.530;2023-10-19T02:41:10;7.20;99.90
16479;DHT22;8350;52.316;10.530;2023-10-19T02:43:37;7.10;99.90
16479;DHT22;8350;52.316;10.530;2023-10-19T02:46:04;7.20;99.90
16479;DHT22;8350;52.316;10.530;2023-10-19T02:48:31;7.10;99.90
16479;DHT22;8350;52.316;10.530;2023-10-19T02:50:57;7.10;99.90
16479;DHT22;8350;52.316;10.530;2023-10-19T02:53:32;7.10;99.90
16479;DHT22;8350;52.316;10.530;2023-10-19T02:55:59;7.10;99.90
16479;DHT22;8350;52.316;10.530;2023-10-19T02:58:29;7.10;99.90
16479;DHT22;8350;52.316;10.530;2023-10-19T03:00:55;7.10;99.90
16479;DHT22;8350;52.316;10.530;2023-10-19T03:03:23;7.10;99.90
16479;DHT22;8350;52.316;10.530;2023-10-19T03:05:49;7.00;99.90
16479;DHT22;8350;52.316;10.530;2023-10-19T03:08:17;7.10;99.90
16479;DHT22;8350;52.316;10.530;2023-10-19T03:10:45;7.00;99.90
16479;DHT22;8350;52.316;10.530;2023-10-19T03:13:12;7.00;99.90
16479;DHT22;8350;52.316;10.530;2023-10-19T03:15:41;7.00;99.90
16479;DHT22;8350;52.316;10.530;2023-10-19T03:18:09;7.00;99.90
16479;DHT22;8350;52.316;10.530;2023-10-19T03:20:37;7.00;99.90
16479;DHT22;8350;52.316;10.530;2023-10-19T03:23:06;7.00;99.90
16479;DHT22;8350;52.316;10.530;2023-10-19T03:25:36;7.10;99.90
16479;DHT22;8350;52.316;10.530;2023-10-19T03:28:20;7.10;99.90
16479;DHT22;8350;52.316;10.530;2023-10-19T03:30:52;7.10;99.90
16479;DHT22;8350;52.316;10.530;2023-10-19T03:33:20;7.10;99.90
16479;DHT22;8350;52.316;10.530;2023-10-19T03:35:52;7.10;99.90
16479;DHT22;8350;52.316;10.530;2023-10-19T03:38:22;7.10;99.90
16479;DHT22;8350;52.316;10.530;2023-10-19T03:40:52;7.10;99.90
16479;DHT22;8350;52.316;10.530;2023-10-19T03:43:25;7.10;99.90
16479;DHT22;8350;52.316;10.530;2023-10-19T03:45:54;7.10;99.90
16479;DHT22;8350;52.316;10.530;2023-10-19T03:48:21;7.10;99.90
16479;DHT22;8350;52.316;10.530;2023-10-19T03:50:56;7.10;99.90
16479;DHT22;8350;52.316;10.530;2023-10-19T03:53:23;7.10;99.90
16479;DHT22;8350;52.316;10.530;2023-10-19T03:55:50;7.10;99.90
16479;DHT22;8350;52.316;10.530;2023-10-19T03:58:18;7.10;99.90
16479;DHT22;8350;52.316;10.530;2023-10-19T04:00:47;7.10;99.90
16479;DHT22;8350;52.316;10.530;2023-10-19T04:03:16;7.10;99.90
16479;DHT22;8350;52.316;10.530;2023-10-19T04:05:44;7.10;99.90
16479;DHT22;8350;52.316;10.530;2023-10-19T04:08:12;7.10;99.90
16479;DHT22;8350;52.316;10.530;2023-10-19T04:10:43;7.10;99.90
16479;DHT22;8350;52.316;10.530;2023-10-19T04:13:33;7.10;99.90
16479;DHT22;8350;52.316;10.530;2023-10-19T04:16:01;7.10;99.90
16479;DHT22;8350;52.316;10.530;2023-10-19T04:18:29;7.20;99.90
16479;DHT22;8350;52.316;10.530;2023-10-19T04:20:56;7.20;99.90
16479;DHT22;8350;52.316;10.530;2023-10-19T04:23:25;7.20;99.90
16479;DHT22;8350;52.316;10.530;2023-10-19T04:26:01;7.20;99.90
16479;DHT22;8350;52.316;10.530;2023-10-19T04:28:37;7.10;99.90
16479;DHT22;8350;52.316;10.530;2023-10-19T04:31:11;7.20;99.90
16479;DHT22;8350;52.316;10.530;2023-10-19T04:33:42;7.10;99.90
16479;DHT22;8350;52.316;10.530;2023-10-19T04:36:12;7.10;99.90
16479;DHT22;8350;52.316;10.530;2023-10-19T04:38:39;7.10;99.90
16479;DHT22;8350;52.316;10.530;2023-10-19T04:41:07;7.10;99.90
16479;DHT22;8350;52.316;10.530;2023-10-19T04:43:35;7.10;99.90
16479;DHT22;8350;52.316;10.530;2023-10-19T04:46:07;7.10;99.90
16479;DHT22;8350;52.316;10.530;2023-10-19T04:48:37;7.10;99.90
16479;DHT22;8350;52.316;10.530;2023-10-19T04:51:09;7.10;99.90
16479;DHT22;8350;52.316;10.530;2023-10-19T04:53:37;7.10;99.90
16479;DHT22;8350;52.316;10.530;2023-10-19T04:56:05;7.10;99.90
16479;DHT22;8350;52.316;10.530;2023-10-19T04:58:34;7.10;99.90
16479;DHT22;8350;52.316;10.530;2023-10-19T05:01:02;7.00;99.90
16479;DHT22;8350;52.316;10.530;2023-10-19T05:03:29;7.00;99.90
16479;DHT22;8350;52.316;10.530;2023-10-19T05:05:57;7.00;99.90
16479;DHT22;8350;52.316;10.530;2023-10-19T05:08:25;7.00;99.90
16479;DHT22;8350;52.316;10.530;2023-10-19T05:10:53;7.00;99.90
16479;DHT22;8350;52.316;10.530;2023-10-19T05:13:21;7.00;99.90
16479;DHT22;8350;52.316;10.530;2023-10-19T05:15:48;7.00;99.90
16479;DHT22;8350;52.316;10.530;2023-10-19T05:18:16;7.00;99.90
16479;DHT22;8350;52.316;10.530;2023-10-19T05:20:43;7.00;99.90
16479;DHT22;8350;52.316;10.530;2023-10-19T05:23:11;7.00;99.90
16479;DHT22;8350;52.316;10.530;2023-10-19T05:25:40;7.00;99.90
16479;DHT22;8350;52.316;10.530;2023-10-19T05:28:08;7.00;99.90
16479;DHT22;8350;52.316;10.530;2023-10-19T05:30:38;7.00;99.90
16479;DHT22;8350;52.316;10.530;2023-10-19T05:33:05;7.00;99.90
16479;DHT22;8350;52.316;10.530;2023-10-19T05:35:32;7.00;99.90
16479;DHT22;8350;52.316;10.530;2023-10-19T05:38:06;7.00;99.90
16479;DHT22;8350;52.316;10.530;2023-10-19T05:40:33;6.90;99.90
16479;DHT22;8350;52.316;10.530;2023-10-19T05:43:03;6.90;99.90
16479;DHT22;8350;52.316;10.530;2023-10-19T05:45:30;7.00;99.90
16479;DHT22;8350;52.316;10.530;2023-10-19T05:47:58;6.90;99.90
16479;DHT22;8350;52.316;10.530;2023-10-19T05:50:25;6.90;99.90
16479;DHT22;8350;52.316;10.530;2023-10-19T05:52:54;6.90;99.90
16479;DHT22;8350;52.316;10.530;2023-10-19T05:55:21;6.90;99.90
16479;DHT22;8350;52.316;10.530;2023-10-19T05:57:48;6.90;99.90
16479;DHT22;8350;52.316;10.530;2023-10-19T06:00:17;7.00;99.90
16479;DHT22;8350;52.316;10.530;2023-10-19T06:02:47;6.90;99.90
16479;DHT22;8350;52.316;10.530;2023-10-19T06:05:14;7.00;99.90
16479;DHT22;8350;52.316;10.530;2023-10-19T06:07:42;7.00;99.90
16479;DHT22;8350;52.316;10.530;2023-10-19T06:10:13;7.00;99.90
16479;DHT22;8350;52.316;10.530;2023-10-19T06:12:43;7.00;99.90
16479;DHT22;8350;52.316;10.530;2023-10-19T06:15:11;7.00;99.90
16479;DHT22;8350;52.316;10.530;2023-10-19T06:17:41;7.00;99.90
16479;DHT22;8350;52.316;10.530;2023-10-19T06:20:12;7.00;99.90
16479;DHT22;8350;52.316;10.530;2023-10-19T06:22:51;7.00;99.90
16479;DHT22;8350;52.316;10.530;2023-10-19T06:25:19;7.00;99.90
16479;DHT22;8350;52.316;10.530;2023-10-19T06:27:47;7.00;99.90
16479;DHT22;8350;52.316;10.530;2023-10-19T06:30:15;7.00;99.90
16479;DHT22;8350;52.316;10.530;2023-10-19T06:32:51;7.00;99.90
16479;DHT22;8350;52.316;10.530;2023-10-19T06:35:18;7.00;99.90
16479;DHT22;8350;52.316;10.530;2023-10-19T06:37:48;7.00;99.90
16479;DHT22;8350;52.316;10.530;2023-10-19T06:40:18;7.00;99.90
16479;DHT22;8350;52.316;10.530;2023-10-19T06:42:46;7.00;99.90
16479;DHT22;8350;52.316;10.530;2023-10-19T06:45:14;7.00;99.90
16479;DHT22;8350;52.316;10.530;2023-10-19T06:47:42;7.00;99.90
16479;DHT22;8350;52.316;10.530;2023-10-19T06:50:12;7.00;99.90
16479;DHT22;8350;52.316;10.530;2023-10-19T06:52:42;7.00;99.90
16479;DHT22;8350;52.316;10.530;2023-10-19T06:55:11;7.00;99.90
16479;DHT22;8350;52.316;10.530;2023-10-19T06:57:41;7.00;99.90
16479;DHT22;8350;52.316;10.530;2023-10-19T07:00:11;7.00;99.90
16479;DHT22;8350;52.316;10.530;2023-10-19T07:02:41;7.10;99.90
16479;DHT22;8350;52.316;10.530;2023-10-19T07:05:13;7.00;99.90
16479;DHT22;8350;52.316;10.530;2023-10-19T07:07:45;7.00;99.90
16479;DHT22;8350;52.316;10.530;2023-10-19T07:10:13;7.10;99.90
16479;DHT22;8350;52.316;10.530;2023-10-19T07:12:43;7.10;99.90
16479;DHT22;8350;52.316;10.530;2023-10-19T07:15:13;7.10;99.90
16479;DHT22;8350;52.316;10.530;2023-10-19T07:17:40;7.10;99.90
16479;DHT22;8350;52.316;10.530;2023-10-19T07:20:09;7.10;99.90
16479;DHT22;8350;52.316;10.530;2023-10-19T07:22:49;7.10;99.90
16479;DHT22;8350;52.316;10.530;2023-10-19T07:25:16;7.10;99.90
16479;DHT22;8350;52.316;10.530;2023-10-19T07:27:46;7.20;99.90
16479;DHT22;8350;52.316;10.530;2023-10-19T07:30:14;7.20;99.90
16479;DHT22;8350;52.316;10.530;2023-10-19T07:32:47;7.20;99.90
16479;DHT22;8350;52.316;10.530;2023-10-19T07:35:17;7.20;99.90
16479;DHT22;8350;52.316;10.530;2023-10-19T07:37:45;7.20;99.90
16479;DHT22;8350;52.316;10.530;2023-10-19T07:40:15;7.20;99.90
16479;DHT22;8350;52.316;10.530;2023-10-19T07:42:43;7.30;99.90
16479;DHT22;8350;52.316;10.530;2023-10-19T07:45:10;7.20;99.90
16479;DHT22;8350;52.316;10.530;2023-10-19T07:47:38;7.20;99.90
16479;DHT22;8350;52.316;10.530;2023-10-19T07:50:07;7.30;99.90
16479;DHT22;8350;52.316;10.530;2023-10-19T07:52:38;7.30;99.90
16479;DHT22;8350;52.316;10.530;2023-10-19T07:55:06;7.30;99.90
16479;DHT22;8350;52.316;10.530;2023-10-19T07:57:35;7.40;99.90
16479;DHT22;8350;52.316;10.530;2023-10-19T08:00:03;7.30;99.90
16479;DHT22;8350;52.316;10.530;2023-10-19T08:02:30;7.40;99.90
16479;DHT22;8350;52.316;10.530;2023-10-19T08:04:59;7.40;99.90
16479;DHT22;8350;52.316;10.530;2023-10-19T08:07:28;7.30;99.90
16479;DHT22;8350;52.316;10.530;2023-10-19T08:09:56;7.30;99.90
16479;DHT22;8350;52.316;10.530;2023-10-19T08:12:24;7.40;99.90
16479;DHT22;8350;52.316;10.530;2023-10-19T08:14:53;7.40;99.90
16479;DHT22;8350;52.316;10.530;2023-10-19T08:17:21;7.40;99.90
16479;DHT22;8350;52.316;10.530;2023-10-19T08:19:49;7.40;99.90
16479;DHT22;8350;52.316;10.530;2023-10-19T08:22:16;7.40;99.90
16479;DHT22;8350;52.316;10.530;2023-10-19T08:24:43;7.40;99.90
16479;DHT22;8350;52.316;10.530;2023-10-19T08:27:11;7.40;99.90
16479;DHT22;8350;52.316;10.530;2023-10-19T08:29:38;7.40;99.90
16479;DHT22;8350;52.316;10.530;2023-10-19T08:32:07;7.40;99.90
16479;DHT22;8350;52.316;10.530;2023-10-19T08:34:34;7.40;99.90
16479;DHT22;8350;52.316;10.530;2023-10-19T08:37:02;7.50;99.90
16479;DHT22;8350;52.316;10.530;2023-10-19T08:39:30;7.50;99.90
16479;DHT22;8350;52.316;10.530;2023-10-19T08:42:03;7.50;99.90
16479;DHT22;8350;52.316;10.530;2023-10-19T08:44:31;7.50;99.90
16479;DHT22;8350;52.316;10.530;2023-10-19T08:46:58;7.50;99.90
16479;DHT22;8350;52.316;10.530;2023-10-19T08:49:28;7.50;99.90
16479;DHT22;8350;52.316;10.530;2023-10-19T08:51:58;7.50;99.90
16479;DHT22;8350;52.316;10.530;2023-10-19T08:54:25;7.50;99.90
16479;DHT22;8350;52.316;10.530;2023-10-19T08:56:53;7.50;99.90
16479;DHT22;8350;52.316;10.530;2023-10-19T08:59:21;7.60;99.90
16479;DHT22;8350;52.316;10.530;2023-10-19T09:01:48;7.50;99.90
16479;DHT22;8350;52.316;10.530;2023-10-19T09:04:16;7.60;99.90
16479;DHT22;8350;52.316;10.530;2023-10-19T09:06:44;7.60;99.90
16479;DHT22;8350;52.316;10.530;2023-10-19T09:09:14;7.60;99.90
16479;DHT22;8350;52.316;10.530;2023-10-19T09:11:42;7.60;99.90
16479;DHT22;8350;52.316;10.530;2023-10-19T09:14:09;7.70;99.90
16479;DHT22;8350;52.316;10.530;2023-10-19T09:16:38;7.70;99.90
16479;DHT22;8350;52.316;10.530;2023-10-19T09:19:20;7.70;99.90
16479;DHT22;8350;52.316;10.530;2023-10-19T09:21:48;7.70;99.90
16479;DHT22;8350;52.316;10.530;2023-10-19T09:24:17;7.80;99.90
16479;DHT22;8350;52.316;10.530;2023-10-19T09:26:44;7.80;99.90
16479;DHT22;8350;52.316;10.530;2023-10-19T09:29:17;7.80;99.90
16479;DHT22;8350;52.316;10.530;2023-10-19T09:31:47;7.80;99.90
16479;DHT22;8350;52.316;10.530;2023-10-19T09:34:15;7.80;99.90
16479;DHT22;8350;52.316;10.530;2023-10-19T09:36:43;7.90;99.90
16479;DHT22;8350;52.316;10.530;2023-10-19T09:39:12;7.90;99.90
16479;DHT22;8350;52.316;10.530;2023-10-19T09:42:13;7.90;99.90
16479;DHT22;8350;52.316;10.530;2023-10-19T09:44:59;8.00;99.90
16479;DHT22;8350;52.316;10.530;2023-10-19T09:47:35;8.00;99.90
16479;DHT22;8350;52.316;10.530;2023-10-19T09:50:05;8.10;99.90
16479;DHT22;8350;52.316;10.530;2023-10-19T09:52:33;8.10;99.90
16479;DHT22;8350;52.316;10.530;2023-10-19T09:55:06;8.10;99.90
16479;DHT22;8350;52.316;10.530;2023-10-19T09:57:39;8.10;99.90
16479;DHT22;8350;52.316;10.530;2023-10-19T10:00:11;8.10;99.90
16479;DHT22;8350;52.316;10.530;2023-10-19T10:02:39;8.20;99.90
16479;DHT22;8350;52.316;10.530;2023-10-19T10:08:36;8.30;99.90
16479;DHT22;8350;52.316;10.530;2023-10-19T10:11:31;8.30;99.90
16479;DHT22;8350;52.316;10.530;2023-10-19T10:13:59;8.40;99.90
16479;DHT22;8350;52.316;10.530;2023-10-19T10:16:28;8.40;99.90
16479;DHT22;8350;52.316;10.530;2023-10-19T10:18:56;8.40;99.90
16479;DHT22;8350;52.316;10.530;2023-10-19T10:21:26;8.50;99.90
16479;DHT22;8350;52.316;10.530;2023-10-19T10:23:55;8.40;99.90
16479;DHT22;8350;52.316;10.530;2023-10-19T10:26:24;8.40;99.90
16479;DHT22;8350;52.316;10.530;2023-10-19T10:29:13;8.40;99.90
16479;DHT22;8350;52.316;10.530;2023-10-19T10:31:46;8.40;99.90
16479;DHT22;8350;52.316;10.530;2023-10-19T10:34:43;8.40;99.90
16479;DHT22;8350;52.316;10.530;2023-10-19T10:37:11;8.40;99.90
16479;DHT22;8350;52.316;10.530;2023-10-19T10:39:39;8.40;99.90
16479;DHT22;8350;52.316;10.530;2023-10-19T10:42:09;8.40;99.90
16479;DHT22;8350;52.316;10.530;2023-10-19T10:44:39;8.40;99.90
16479;DHT22;8350;52.316;10.530;2023-10-19T10:47:10;8.40;99.90
16479;DHT22;8350;52.316;10.530;2023-10-19T10:49:49;8.50;99.90
16479;DHT22;8350;52.316;10.530;2023-10-19T10:52:26;8.50;99.90
16479;DHT22;8350;52.316;10.530;2023-10-19T10:54:55;8.50;99.90
16479;DHT22;8350;52.316;10.530;2023-10-19T10:57:22;8.60;99.90
16479;DHT22;8350;52.316;10.530;2023-10-19T11:00:03;8.70;99.90
16479;DHT22;8350;52.316;10.530;2023-10-19T11:02:32;8.80;99.90
16479;DHT22;8350;52.316;10.530;2023-10-19T11:04:59;8.90;99.90
16479;DHT22;8350;52.316;10.530;2023-10-19T11:07:27;8.90;99.90
16479;DHT22;8350;52.316;10.530;2023-10-19T11:09:55;9.00;99.90
16479;DHT22;8350;52.316;10.530;2023-10-19T11:12:25;8.90;99.90
16479;DHT22;8350;52.316;10.530;2023-10-19T11:14:53;8.90;99.90
16479;DHT22;8350;52.316;10.530;2023-10-19T11:17:22;8.90;99.90
16479;DHT22;8350;52.316;10.530;2023-10-19T11:19:56;8.80;99.90
16479;DHT22;8350;52.316;10.530;2023-10-19T11:22:24;8.70;99.90
16479;DHT22;8350;52.316;10.530;2023-10-19T11:24:52;8.70;99.90
16479;DHT22;8350;52.316;10.530;2023-10-19T11:27:24;8.70;99.90
16479;DHT22;8350;52.316;10.530;2023-10-19T11:29:54;8.70;99.90
16479;DHT22;8350;52.316;10.530;2023-10-19T11:32:23;8.80;99.90
16479;DHT22;8350;52.316;10.530;2023-10-19T11:34:58;8.80;99.90
16479;DHT22;8350;52.316;10.530;2023-10-19T11:37:25;8.80;99.90
16479;DHT22;8350;52.316;10.530;2023-10-19T11:39:54;8.80;99.90
16479;DHT22;8350;52.316;10.530;2023-10-19T11:42:21;8.80;99.90
16479;DHT22;8350;52.316;10.530;2023-10-19T11:44:48;8.80;99.90
16479;DHT22;8350;52.316;10.530;2023-10-19T11:47:16;8.80;99.90
16479;DHT22;8350;52.316;10.530;2023-10-19T11:49:45;8.80;99.90
16479;DHT22;8350;52.316;10.530;2023-10-19T11:52:12;8.90;99.90
16479;DHT22;8350;52.316;10.530;2023-10-19T11:54:43;9.00;99.90
16479;DHT22;8350;52.316;10.530;2023-10-19T11:57:13;9.00;99.90
16479;DHT22;8350;52.316;10.530;2023-10-19T11:59:43;9.00;99.90
16479;DHT22;8350;52.316;10.530;2023-10-19T12:02:17;8.90;99.90
16479;DHT22;8350;52.316;10.530;2023-10-19T12:04:46;8.90;99.90
16479;DHT22;8350;52.316;10.530;2023-10-19T12:07:13;8.90;99.90
16479;DHT22;8350;52.316;10.530;2023-10-19T12:09:40;8.90;99.90
16479;DHT22;8350;52.316;10.530;2023-10-19T12:12:08;8.90;99.90
16479;DHT22;8350;52.316;10.530;2023-10-19T12:14:35;8.90;99.90
16479;DHT22;8350;52.316;10.530;2023-10-19T12:17:02;8.90;99.90
16479;DHT22;8350;52.316;10.530;2023-10-19T12:19:32;8.90;99.90
16479;DHT22;8350;52.316;10.530;2023-10-19T12:22:00;8.80;99.90
16479;DHT22;8350;52.316;10.530;2023-10-19T12:24:28;8.90;99.90
16479;DHT22;8350;52.316;10.530;2023-10-19T12:26:56;8.90;99.90
16479;DHT22;8350;52.316;10.530;2023-10-19T12:29:26;8.90;99.90
16479;DHT22;8350;52.316;10.530;2023-10-19T12:31:53;8.80;99.90
16479;DHT22;8350;52.316;10.530;2023-10-19T12:34:20;8.80;99.90
16479;DHT22;8350;52.316;10.530;2023-10-19T12:36:48;8.80;99.90
16479;DHT22;8350;52.316;10.530;2023-10-19T12:39:19;8.80;99.90
16479;DHT22;8350;52.316;10.530;2023-10-19T12:42:00;8.80;99.90
16479;DHT22;8350;52.316;10.530;2023-10-19T12:44:27;8.80;99.90
16479;DHT22;8350;52.316;10.530;2023-10-19T12:46:55;8.80;99.90
16479;DHT22;8350;52.316;10.530;2023-10-19T12:49:24;8.70;99.90
16479;DHT22;8350;52.316;10.530;2023-10-19T12:51:52;8.70;99.90
16479;DHT22;8350;52.316;10.530;2023-10-19T12:54:21;8.70;99.90
16479;DHT22;8350;52.316;10.530;2023-10-19T12:56:48;8.70;99.90
16479;DHT22;8350;52.316;10.530;2023-10-19T12:59:15;8.70;99.90
16479;DHT22;8350;52.316;10.530;2023-10-19T13:01:44;8.70;99.90
16479;DHT22;8350;52.316;10.530;2023-10-19T13:04:14;8.70;99.90
16479;DHT22;8350;52.316;10.530;2023-10-19T13:06:42;8.70;99.90
16479;DHT22;8350;52.316;10.530;2023-10-19T13:09:09;8.70;99.90
16479;DHT22;8350;52.316;10.530;2023-10-19T13:11:38;8.70;99.90
16479;DHT22;8350;52.316;10.530;2023-10-19T13:14:09;8.70;99.90
16479;DHT22;8350;52.316;10.530;2023-10-19T13:16:43;8.70;99.90
16479;DHT22;8350;52.316;10.530;2023-10-19T13:19:15;8.70;99.90
16479;DHT22;8350;52.316;10.530;2023-10-19T13:21:46;8.70;99.90
16479;DHT22;8350;52.316;10.530;2023-10-19T13:24:14;8.70;99.90
16479;DHT22;8350;52.316;10.530;2023-10-19T13:26:43;8.70;99.90
16479;DHT22;8350;52.316;10.530;2023-10-19T13:29:12;8.70;99.90
16479;DHT22;8350;52.316;10.530;2023-10-19T13:31:40;8.70;99.90
16479;DHT22;8350;52.316;10.530;2023-10-19T13:34:17;8.70;99.90
16479;DHT22;8350;52.316;10.530;2023-10-19T13:36:45;8.70;99.90
16479;DHT22;8350;52.316;10.530;2023-10-19T13:39:12;8.60;99.90
16479;DHT22;8350;52.316;10.530;2023-10-19T13:41:44;8.70;99.90
16479;DHT22;8350;52.316;10.530;2023-10-19T13:44:11;8.60;99.90
16479;DHT22;8350;52.316;10.530;2023-10-19T13:46:38;8.40;99.90
16479;DHT22;8350;52.316;10.530;2023-10-19T13:49:05;8.30;99.90
16479;DHT22;8350;52.316;10.530;2023-10-19T13:51:35;8.30;99.90
16479;DHT22;8350;52.316;10.530;2023-10-19T13:54:02;8.20;99.90
16479;DHT22;8350;52.316;10.530;2023-10-19T13:56:29;8.30;99.90
16479;DHT22;8350;52.316;10.530;2023-10-19T13:58:58;8.30;99.90
16479;DHT22;8350;52.316;10.530;2023-10-19T14:01:25;8.20;99.90
16479;DHT22;8350;52.316;10.530;2023-10-19T14:03:54;8.30;99.90
16479;DHT22;8350;52.316;10.530;2023-10-19T14:06:21;8.20;99.90
16479;DHT22;8350;52.316;10.530;2023-10-19T14:08:50;8.20;99.90
16479;DHT22;8350;52.316;10.530;2023-10-19T14:11:17;8.20;99.90
16479;DHT22;8350;52.316;10.530;2023-10-19T14:13:44;8.20;99.90
16479;DHT22;8350;52.316;10.530;2023-10-19T14:16:13;8.20;99.90
16479;DHT22;8350;52.316;10.530;2023-10-19T14:18:40;8.10;99.90
16479;DHT22;8350;52.316;10.530;2023-10-19T14:21:13;8.10;99.90
16479;DHT22;8350;52.316;10.530;2023-10-19T14:23:44;8.10;99.90
16479;DHT22;8350;52.316;10.530;2023-10-19T14:26:12;8.00;99.90
16479;DHT22;8350;52.316;10.530;2023-10-19T14:28:39;8.00;99.90
16479;DHT22;8350;52.316;10.530;2023-10-19T14:31:06;8.10;99.90
16479;DHT22;8350;52.316;10.530;2023-10-19T14:33:35;8.10;99.90
16479;DHT22;8350;52.316;10.530;2023-10-19T14:36:04;8.10;99.90
16479;DHT22;8350;52.316;10.530;2023-10-19T14:38:33;8.10;99.90
16479;DHT22;8350;52.316;10.530;2023-10-19T14:41:02;8.00;99.90
16479;DHT22;8350;52.316;10.530;2023-10-19T14:43:29;8.00;99.90
16479;DHT22;8350;52.316;10.530;2023-10-19T14:45:56;7.90;99.90
16479;DHT22;8350;52.316;10.530;2023-10-19T14:48:26;8.00;99.90
16479;DHT22;8350;52.316;10.530;2023-10-19T14:50:58;8.00;99.90
16479;DHT22;8350;52.316;10.530;2023-10-19T14:53:25;8.00;99.90
16479;DHT22;8350;52.316;10.530;2023-10-19T14:55:54;8.10;99.90
16479;DHT22;8350;52.316;10.530;2023-10-19T14:58:22;8.00;99.90
16479;DHT22;8350;52.316;10.530;2023-10-19T15:00:50;8.00;99.90
16479;DHT22;8350;52.316;10.530;2023-10-19T15:03:23;8.00;99.90
16479;DHT22;8350;52.316;10.530;2023-10-19T15:05:51;7.90;99.90
16479;DHT22;8350;52.316;10.530;2023-10-19T15:08:20;7.90;99.90
16479;DHT22;8350;52.316;10.530;2023-10-19T15:10:49;7.90;99.90
16479;DHT22;8350;52.316;10.530;2023-10-19T15:13:17;7.90;99.90
16479;DHT22;8350;52.316;10.530;2023-10-19T15:15:44;7.90;99.90
16479;DHT22;8350;52.316;10.530;2023-10-19T15:18:11;7.90;99.90
16479;DHT22;8350;52.316;10.530;2023-10-19T15:20:41;7.90;99.90
16479;DHT22;8350;52.316;10.530;2023-10-19T15:23:09;7.90;99.90
16479;DHT22;8350;52.316;10.530;2023-10-19T15:25:40;7.90;99.90
16479;DHT22;8350;52.316;10.530;2023-10-19T15:28:09;7.90;99.90
16479;DHT22;8350;52.316;10.530;2023-10-19T15:30:39;7.90;99.90
16479;DHT22;8350;52.316;10.530;2023-10-19T15:33:07;7.80;99.90
16479;DHT22;8350;52.316;10.530;2023-10-19T15:35:35;7.80;99.90
16479;DHT22;8350;52.316;10.530;2023-10-19T15:38:09;7.80;99.90
16479;DHT22;8350;52.316;10.530;2023-10-19T15:40:37;7.80;99.90
16479;DHT22;8350;52.316;10.530;2023-10-19T15:43:07;7.70;99.90
16479;DHT22;8350;52.316;10.530;2023-10-19T15:45:34;7.70;99.90
16479;DHT22;8350;52.316;10.530;2023-10-19T15:48:06;7.70;99.90
16479;DHT22;8350;52.316;10.530;2023-10-19T15:50:35;7.70;99.90
16479;DHT22;8350;52.316;10.530;2023-10-19T15:53:05;7.60;99.90
16479;DHT22;8350;52.316;10.530;2023-10-19T15:55:32;7.60;99.90
16479;DHT22;8350;52.316;10.530;2023-10-19T15:57:59;7.60;99.90
16479;DHT22;8350;52.316;10.530;2023-10-19T16:00:27;7.70;99.90
16479;DHT22;8350;52.316;10.530;2023-10-19T16:02:54;7.60;99.90
16479;DHT22;8350;52.316;10.530;2023-10-19T16:05:21;7.60;99.90